Pagina principale
METAR-TAF:

METAR-TAF

Aeroporti :

Aeroporto di Verona-Villafranca

Verona, Italia

latitudine: 45-23N, longitudine: 010-52E, altezza: 67 m

Osservazione

Il bollettino è stato emesso 47 minuti fa, alle 08:20 UTC
Vento 10 kt da est, variando fra nord-est e est/sud-est
Temperature 31°C
Umidità 46%
Pressione 1017 hPa
Visibilità 10 km o più
nessuna nube inferiore a 1500 m e nessun cumulonembo

METAR: LIPX 180820Z 09010KT 050V120 CAVOK 31/18 Q1017

Ora: 11:07 (09:07 UTC)

Previsione

Il bollettino è stato emesso 4 ore e 7 minuti fa, alle 05:00 UTC
Previsione valida dal 18 alle 06 UTC al 19 alle 06 UTC
Vento 6 kt da direzioni variabili
Visibilità 10 km o più
Poco nuvoloso ad un'altezza di 4000 ft

TAF: LIPX 180500Z 1806/1906 VRB06KT 9999 FEW040

Osservazioni e previsioni meteorologiche di più di 4000 aeroporti (messaggi METAR e TAF).

Le stazioni disponibili sono rappresentate dai dischi gialli e rossi sulla carta.

Puntare il mouse per vedere il nome della stazione.

Clicca sopra per visualizzare le osservazioni e previsioni meteorologiche.

Per cambiare la mappa : fare clic sui pulsanti verdi con una croce nera per ingrandire, il pulsante verde con un trattino per diminuire, o sulla freccia verde per le mappe adiacenti.


METAR-TAF: